createdAt,value
2018-12-11T00:00:08.140Z,1.72
2018-12-11T00:02:37.333Z,1.57
2018-12-11T00:05:06.529Z,1.70
2018-12-11T00:07:35.752Z,2.02
2018-12-11T00:10:05.754Z,2.00
2018-12-11T00:12:35.760Z,1.60
2018-12-11T00:15:05.551Z,2.15
2018-12-11T00:17:34.634Z,2.15
2018-12-11T00:20:04.335Z,1.47
2018-12-11T00:22:34.564Z,1.70
2018-12-11T00:25:03.892Z,2.17
2018-12-11T00:27:33.833Z,2.08
2018-12-11T00:30:04.156Z,1.75
2018-12-11T00:32:33.829Z,1.77
2018-12-11T00:35:03.059Z,1.70
2018-12-11T00:37:34.189Z,1.50
2018-12-11T00:40:03.655Z,1.55
2018-12-11T00:42:32.848Z,1.62
2018-12-11T00:45:02.050Z,2.05
2018-12-11T00:47:32.188Z,1.57
2018-12-11T00:50:01.219Z,1.92
2018-12-11T00:52:30.799Z,1.27
2018-12-11T00:55:01.363Z,1.32
2018-12-11T00:57:31.032Z,1.80
2018-12-11T01:00:01.597Z,1.87
2018-12-11T01:02:30.702Z,1.92
2018-12-11T01:05:00.688Z,2.17
2018-12-11T01:07:29.891Z,2.60
2018-12-11T01:09:58.966Z,2.08
2018-12-11T01:12:28.241Z,1.70
2018-12-11T01:14:57.293Z,1.57
2018-12-11T01:17:27.142Z,1.75
2018-12-11T01:19:57.532Z,1.30
2018-12-11T01:22:28.315Z,1.67
2018-12-11T01:24:57.396Z,1.70
2018-12-11T01:27:27.536Z,1.92
2018-12-11T01:29:56.595Z,1.92
2018-12-11T01:32:26.459Z,1.40
2018-12-11T01:34:55.820Z,1.65
2018-12-11T01:37:24.891Z,1.40
2018-12-11T01:39:54.876Z,1.77
2018-12-11T01:42:23.969Z,2.05
2018-12-11T01:44:53.409Z,1.67
2018-12-11T01:47:22.679Z,1.40
2018-12-11T01:49:52.337Z,2.17
2018-12-11T01:52:22.295Z,1.95
2018-12-11T01:54:52.525Z,1.52
2018-12-11T01:57:22.112Z,2.25
2018-12-11T01:59:51.408Z,1.65
2018-12-11T02:02:20.466Z,1.67
2018-12-11T02:04:49.556Z,1.40
2018-12-11T02:07:19.850Z,1.57
2018-12-11T02:09:49.043Z,1.50
2018-12-11T02:12:18.962Z,1.37
2018-12-11T02:14:48.768Z,1.30
2018-12-11T02:17:18.027Z,1.35
2018-12-11T02:19:47.119Z,1.62
2018-12-11T02:22:17.602Z,1.60
2018-12-11T02:24:46.819Z,1.30
2018-12-11T02:27:16.800Z,1.30
2018-12-11T02:29:45.910Z,1.52
2018-12-11T02:32:16.626Z,1.40
2018-12-11T02:34:45.708Z,1.35
2018-12-11T02:37:14.938Z,1.32
2018-12-11T02:39:44.027Z,1.72
2018-12-11T02:42:13.139Z,1.70
2018-12-11T02:44:42.391Z,1.35
2018-12-11T02:47:12.151Z,1.27
2018-12-11T02:49:41.216Z,1.20
2018-12-11T02:52:11.031Z,1.22
2018-12-11T02:54:40.849Z,1.57
2018-12-11T02:57:10.399Z,1.20
2018-12-11T02:59:39.455Z,1.50
2018-12-11T03:02:08.710Z,1.47
2018-12-11T03:04:37.933Z,1.30
2018-12-11T03:07:07.224Z,1.47
2018-12-11T03:09:36.381Z,1.22
2018-12-11T03:12:06.257Z,1.27
2018-12-11T03:14:36.090Z,1.20
2018-12-11T03:17:05.140Z,1.47
2018-12-11T03:19:34.284Z,1.40
2018-12-11T03:22:04.271Z,1.40
2018-12-11T03:24:33.943Z,1.45
2018-12-11T03:27:03.996Z,1.70
2018-12-11T03:29:33.316Z,1.45
2018-12-11T03:32:03.721Z,1.17
2018-12-11T03:34:32.797Z,1.15
2018-12-11T03:37:01.886Z,1.40
2018-12-11T03:39:31.061Z,1.32
2018-12-11T03:42:01.661Z,1.32
2018-12-11T03:44:31.408Z,1.37
2018-12-11T03:47:01.194Z,1.42
2018-12-11T03:49:30.577Z,1.30
2018-12-11T03:52:00.997Z,1.20
2018-12-11T03:54:30.921Z,1.30
2018-12-11T03:57:00.829Z,1.20
2018-12-11T03:59:30.018Z,1.27
2018-12-11T04:01:59.826Z,1.30
2018-12-11T04:04:28.945Z,1.47
2018-12-11T04:06:58.243Z,1.45
2018-12-11T04:09:28.221Z,1.47
2018-12-11T04:11:57.401Z,1.30
2018-12-11T04:14:26.567Z,1.35
2018-12-11T04:16:55.639Z,1.65
2018-12-11T04:19:24.709Z,0.93
2018-12-11T04:21:53.838Z,1.10
2018-12-11T04:24:23.467Z,1.62
2018-12-11T04:26:54.002Z,1.27
2018-12-11T04:29:23.131Z,1.42
2018-12-11T04:31:53.383Z,1.20
2018-12-11T04:34:22.575Z,1.05
2018-12-11T04:36:52.505Z,0.95
2018-12-11T04:39:22.822Z,1.37
2018-12-11T04:41:51.960Z,1.12
2018-12-11T04:44:21.063Z,1.37
2018-12-11T04:46:50.541Z,1.47
2018-12-11T04:49:20.635Z,1.30
2018-12-11T04:51:51.172Z,1.25
2018-12-11T04:54:20.831Z,1.17
2018-12-11T04:56:50.407Z,1.25
2018-12-11T04:59:19.507Z,1.30
2018-12-11T05:01:48.679Z,1.47
2018-12-11T05:04:17.848Z,1.77
2018-12-11T05:06:47.284Z,1.32
2018-12-11T05:09:16.431Z,1.40
2018-12-11T05:11:45.524Z,1.30
2018-12-11T05:14:14.605Z,1.32
2018-12-11T05:16:43.711Z,1.12
2018-12-11T05:19:12.976Z,1.60
2018-12-11T05:21:42.120Z,1.27
2018-12-11T05:24:11.972Z,1.55
2018-12-11T05:26:41.623Z,1.20
2018-12-11T05:29:10.700Z,1.40
2018-12-11T05:31:40.792Z,1.00
2018-12-11T05:34:10.914Z,1.05
2018-12-11T05:36:40.033Z,1.20
2018-12-11T05:39:09.760Z,1.30
2018-12-11T05:41:38.839Z,1.45
2018-12-11T05:44:08.792Z,1.37
2018-12-11T05:46:38.612Z,1.12
2018-12-11T05:49:07.750Z,1.10
2018-12-11T05:51:36.836Z,1.07
2018-12-11T05:54:06.951Z,1.30
2018-12-11T05:56:36.763Z,1.42
2018-12-11T05:59:05.876Z,1.15
2018-12-11T06:01:34.944Z,0.95
2018-12-11T06:04:04.359Z,1.10
2018-12-11T06:06:33.436Z,1.17
2018-12-11T06:09:03.188Z,1.30
2018-12-11T06:11:32.299Z,1.05
2018-12-11T06:14:01.364Z,1.85
2018-12-11T06:16:31.036Z,1.65
2018-12-11T06:19:00.159Z,1.52
2018-12-11T06:21:29.695Z,1.60
2018-12-11T06:23:59.380Z,1.70
2018-12-11T06:26:29.987Z,1.45
2018-12-11T06:28:59.059Z,1.62
2018-12-11T06:31:28.800Z,1.80
2018-12-11T06:33:58.349Z,1.67
2018-12-11T06:36:27.873Z,2.00
2018-12-11T06:38:57.027Z,1.52
2018-12-11T06:41:26.095Z,1.70
2018-12-11T06:43:56.020Z,1.47
2018-12-11T06:46:25.922Z,2.20
2018-12-11T06:48:55.720Z,2.17
2018-12-11T06:51:25.133Z,2.35
2018-12-11T06:53:54.908Z,2.20
2018-12-11T06:56:25.283Z,1.80
2018-12-11T06:58:55.194Z,1.85
2018-12-11T07:01:24.409Z,2.20
2018-12-11T07:03:53.971Z,2.12
2018-12-11T07:06:23.127Z,1.87
2018-12-11T07:08:52.330Z,1.60
2018-12-11T07:11:21.576Z,1.70
2018-12-11T07:13:51.637Z,1.40
2018-12-11T07:16:21.893Z,1.82
2018-12-11T07:18:52.071Z,1.47
2018-12-11T07:21:21.135Z,1.90
2018-12-11T07:23:50.272Z,1.80
2018-12-11T07:26:19.392Z,2.00
2018-12-11T07:28:48.964Z,1.55
2018-12-11T07:31:18.078Z,1.95
2018-12-11T07:33:50.879Z,1.55
2018-12-11T07:36:18.683Z,1.67
2018-12-11T07:38:47.811Z,1.80
2018-12-11T07:41:16.980Z,1.75
2018-12-11T07:43:46.296Z,1.82
2018-12-11T07:46:15.555Z,1.80
2018-12-11T07:48:44.839Z,1.25
2018-12-11T07:51:13.899Z,1.62
2018-12-11T07:53:44.023Z,1.50
2018-12-11T07:56:14.024Z,1.50
2018-12-11T07:58:43.674Z,1.42
2018-12-11T08:01:13.870Z,1.42
2018-12-11T08:03:43.428Z,1.42
2018-12-11T08:06:12.518Z,1.90
2018-12-11T08:08:42.531Z,1.70
2018-12-11T08:11:12.488Z,1.57
2018-12-11T08:13:42.417Z,1.80
2018-12-11T08:16:13.159Z,1.60
2018-12-11T08:18:42.283Z,1.80
2018-12-11T08:21:11.396Z,1.45
2018-12-11T08:23:40.655Z,1.32
2018-12-11T08:26:09.807Z,1.70
2018-12-11T08:28:39.779Z,1.50
2018-12-11T08:31:08.958Z,1.50
2018-12-11T08:33:38.110Z,1.67
2018-12-11T08:36:07.705Z,1.62
2018-12-11T08:38:37.015Z,1.30
2018-12-11T08:41:06.972Z,1.62
2018-12-11T08:43:36.256Z,1.60
2018-12-11T08:46:06.379Z,1.82
2018-12-11T08:48:35.475Z,1.40
2018-12-11T08:51:04.585Z,1.60
2018-12-11T08:53:34.666Z,1.67
2018-12-11T08:56:04.923Z,1.45
2018-12-11T08:58:34.628Z,1.47
2018-12-11T09:01:03.951Z,1.42
2018-12-11T09:03:35.415Z,1.70
2018-12-11T09:06:04.974Z,1.50
2018-12-11T09:08:34.189Z,1.37
2018-12-11T09:11:04.005Z,2.17
2018-12-11T09:13:33.527Z,1.25
2018-12-11T09:16:04.258Z,1.42
2018-12-11T09:18:33.323Z,1.47
2018-12-11T09:21:02.397Z,1.25
2018-12-11T09:23:31.634Z,1.10
2018-12-11T09:26:00.820Z,1.30
2018-12-11T09:28:31.353Z,1.30
2018-12-11T09:31:00.556Z,1.40
2018-12-11T09:33:31.076Z,1.35
2018-12-11T09:36:00.337Z,1.70
2018-12-11T09:38:30.152Z,1.57
2018-12-11T09:40:59.276Z,1.40
2018-12-11T09:43:29.082Z,1.37
2018-12-11T09:45:58.427Z,1.32
2018-12-11T09:48:28.274Z,1.85
2018-12-11T09:50:58.112Z,1.30
2018-12-11T09:53:28.260Z,1.40
2018-12-11T09:55:58.048Z,1.20
2018-12-11T09:58:28.759Z,1.60
2018-12-11T10:01:01.839Z,1.30
2018-12-11T10:03:31.795Z,1.50
2018-12-11T10:06:01.028Z,1.42
2018-12-11T10:08:30.116Z,1.27
2018-12-11T10:10:59.224Z,1.70
2018-12-11T10:13:28.299Z,1.25
2018-12-11T10:15:58.157Z,1.40
2018-12-11T10:18:28.335Z,1.12
2018-12-11T10:20:58.256Z,1.10
2018-12-11T10:23:31.811Z,1.32
2018-12-11T10:25:58.724Z,1.05
2018-12-11T10:28:28.737Z,1.32
2018-12-11T10:30:57.816Z,1.40
2018-12-11T10:33:27.021Z,1.37
2018-12-11T10:35:56.166Z,1.62
2018-12-11T10:38:25.892Z,1.32
2018-12-11T10:40:55.875Z,1.20
2018-12-11T10:43:25.507Z,1.40
2018-12-11T10:45:54.676Z,1.50
2018-12-11T10:48:24.530Z,1.15
2018-12-11T10:50:54.332Z,1.60
2018-12-11T10:53:24.273Z,1.70
2018-12-11T10:55:54.988Z,1.75
2018-12-11T10:58:24.512Z,1.62
2018-12-11T11:00:58.971Z,1.37
2018-12-11T11:03:28.590Z,1.27
2018-12-11T11:05:57.648Z,1.20
2018-12-11T11:08:27.704Z,1.30
2018-12-11T11:10:57.436Z,1.22
2018-12-11T11:13:26.520Z,1.15
2018-12-11T11:15:55.726Z,1.50
2018-12-11T11:18:26.141Z,1.40
2018-12-11T11:20:55.305Z,1.10
2018-12-11T11:23:25.201Z,1.17
2018-12-11T11:25:54.452Z,1.32
2018-12-11T11:28:25.199Z,1.42
2018-12-11T11:30:54.689Z,1.25
2018-12-11T11:33:24.155Z,1.12
2018-12-11T11:35:54.514Z,1.40
2018-12-11T11:38:23.621Z,1.37
2018-12-11T11:40:52.763Z,1.40
2018-12-11T11:43:22.784Z,1.30
2018-12-11T11:45:51.884Z,1.37
2018-12-11T11:48:20.995Z,1.67
2018-12-11T11:50:50.363Z,1.65
2018-12-11T11:53:21.369Z,1.50
2018-12-11T11:55:51.916Z,1.40
2018-12-11T11:58:21.928Z,1.72
2018-12-11T12:00:52.127Z,1.40
2018-12-11T12:03:22.561Z,1.47
2018-12-11T12:05:52.279Z,1.40
2018-12-11T12:08:21.575Z,1.42
2018-12-11T12:10:50.728Z,1.67
2018-12-11T12:13:19.874Z,1.20
2018-12-11T12:15:49.035Z,1.10
2018-12-11T12:18:18.988Z,1.10
2018-12-11T12:20:48.092Z,1.27
2018-12-11T12:23:17.269Z,1.55
2018-12-11T12:25:46.454Z,1.22
2018-12-11T12:28:15.960Z,1.37
2018-12-11T12:30:45.670Z,1.22
2018-12-11T12:33:15.509Z,1.22
2018-12-11T12:35:44.572Z,1.20
2018-12-11T12:38:14.574Z,1.15
2018-12-11T12:40:44.532Z,0.95
2018-12-11T12:43:13.656Z,1.20
2018-12-11T12:45:42.819Z,1.30
2018-12-11T12:48:12.172Z,1.20
2018-12-11T12:50:41.356Z,1.20
2018-12-11T12:53:11.860Z,1.60
2018-12-11T12:55:41.871Z,1.70
2018-12-11T12:58:11.709Z,1.37
2018-12-11T13:00:40.784Z,1.10
2018-12-11T13:03:10.429Z,1.20
2018-12-11T13:05:39.646Z,1.17
2018-12-11T13:08:08.800Z,1.42
2018-12-11T13:10:37.967Z,1.27
2018-12-11T13:13:07.086Z,0.98
2018-12-11T13:15:36.224Z,1.10
2018-12-11T13:18:05.884Z,1.00
2018-12-11T13:20:34.968Z,1.02
2018-12-11T13:23:04.052Z,1.07
2018-12-11T13:25:33.207Z,1.12
2018-12-11T13:28:03.452Z,1.32
2018-12-11T13:30:34.066Z,1.10
2018-12-11T13:33:03.212Z,0.95
2018-12-11T13:35:32.281Z,1.02
2018-12-11T13:38:01.454Z,1.10
2018-12-11T13:40:30.879Z,1.15
2018-12-11T13:43:01.672Z,1.10
2018-12-11T13:45:30.803Z,1.32
2018-12-11T13:47:59.967Z,1.20
2018-12-11T13:50:29.198Z,0.90
2018-12-11T13:52:59.291Z,1.20
2018-12-11T13:55:29.176Z,1.00
2018-12-11T13:57:59.324Z,1.07
2018-12-11T14:00:28.387Z,0.95
2018-12-11T14:02:58.421Z,1.20
2018-12-11T14:05:27.635Z,1.10
2018-12-11T14:07:56.825Z,1.12
2018-12-11T14:10:26.007Z,1.20
2018-12-11T14:12:55.204Z,1.15
2018-12-11T14:15:25.441Z,1.12
2018-12-11T14:17:54.517Z,1.00
2018-12-11T14:20:23.620Z,1.00
2018-12-11T14:22:53.275Z,1.15
2018-12-11T14:25:23.337Z,1.00
2018-12-11T14:27:53.560Z,1.10
2018-12-11T14:30:22.718Z,0.80
2018-12-11T14:32:51.776Z,0.93
2018-12-11T14:35:21.452Z,1.10
2018-12-11T14:37:50.728Z,1.20
2018-12-11T14:40:20.296Z,0.90
2018-12-11T14:42:49.381Z,1.07
2018-12-11T14:45:18.592Z,1.30
2018-12-11T14:47:48.602Z,1.17
2018-12-11T14:50:17.746Z,1.40
2018-12-11T14:52:47.884Z,1.00
2018-12-11T14:55:17.810Z,1.02
2018-12-11T14:57:48.621Z,1.00
2018-12-11T15:00:17.990Z,0.95
2018-12-11T15:02:48.193Z,1.15
2018-12-11T15:05:18.559Z,0.80
2018-12-11T15:07:48.015Z,1.30
2018-12-11T15:10:17.169Z,1.00
2018-12-11T15:12:46.208Z,1.00
2018-12-11T15:15:16.055Z,1.00
2018-12-11T15:17:45.928Z,1.00
2018-12-11T15:20:14.999Z,1.02
2018-12-11T15:22:44.120Z,1.27
2018-12-11T15:25:13.220Z,1.25
2018-12-11T15:27:43.018Z,1.40
2018-12-11T15:30:12.088Z,1.00
2018-12-11T15:32:42.423Z,1.30
2018-12-11T15:35:11.511Z,0.90
2018-12-11T15:37:40.604Z,1.00
2018-12-11T15:40:09.690Z,1.00
2018-12-11T15:42:38.793Z,1.02
2018-12-11T15:45:08.154Z,0.95
2018-12-11T15:47:37.624Z,1.45
2018-12-11T15:50:07.281Z,1.00
2018-12-11T15:52:36.356Z,0.93
2018-12-11T15:55:06.741Z,1.25
2018-12-11T15:57:36.331Z,1.30
2018-12-11T16:00:07.335Z,1.52
2018-12-11T16:02:36.439Z,1.45
2018-12-11T16:05:06.669Z,1.00
2018-12-11T16:07:36.431Z,1.17
2018-12-11T16:10:07.357Z,1.10
2018-12-11T16:12:36.418Z,1.10
2018-12-11T16:15:05.800Z,1.22
2018-12-11T16:17:35.545Z,1.10
2018-12-11T16:20:05.306Z,1.10
2018-12-11T16:22:35.119Z,1.12
2018-12-11T16:25:04.612Z,0.72
2018-12-11T16:27:34.844Z,1.05
2018-12-11T16:30:04.503Z,1.20
2018-12-11T16:32:33.628Z,1.07
2018-12-11T16:35:03.173Z,1.20
2018-12-11T16:37:32.486Z,0.93
2018-12-11T16:40:04.604Z,1.20
2018-12-11T16:42:33.150Z,1.20
2018-12-11T16:45:02.410Z,1.07
2018-12-11T16:47:31.821Z,0.95
2018-12-11T16:50:00.901Z,1.00
2018-12-11T16:52:29.986Z,1.20
2018-12-11T16:54:59.641Z,1.22
2018-12-11T16:57:29.582Z,1.00
2018-12-11T16:59:59.407Z,0.95
2018-12-11T17:02:29.065Z,1.37
2018-12-11T17:04:58.588Z,1.40
2018-12-11T17:07:27.949Z,1.20
2018-12-11T17:09:57.434Z,1.12
2018-12-11T17:12:27.421Z,1.35
2018-12-11T17:14:58.509Z,1.45
2018-12-11T17:17:28.644Z,1.12
2018-12-11T17:19:58.190Z,1.52
2018-12-11T17:22:27.322Z,1.42
2018-12-11T17:24:57.744Z,1.50
2018-12-11T17:27:27.412Z,1.82
2018-12-11T17:29:57.264Z,1.50
2018-12-11T17:32:26.388Z,2.30
2018-12-11T17:34:56.127Z,2.10
2018-12-11T17:37:25.933Z,1.75
2018-12-11T17:39:56.734Z,1.80
2018-12-11T17:42:32.544Z,1.77
2018-12-11T17:45:03.757Z,1.45
2018-12-11T17:47:35.040Z,2.10
2018-12-11T17:50:07.398Z,1.50
2018-12-11T17:52:36.558Z,1.90
2018-12-11T17:55:06.485Z,1.85
2018-12-11T17:57:36.275Z,1.50
2018-12-11T18:00:07.111Z,1.50
2018-12-11T18:02:38.334Z,1.62
2018-12-11T18:05:07.771Z,2.00
2018-12-11T18:07:37.262Z,1.60
2018-12-11T18:10:07.357Z,1.85
2018-12-11T18:12:36.484Z,1.70
2018-12-11T18:15:05.886Z,2.20
2018-12-11T18:17:34.988Z,1.85
2018-12-11T18:20:04.815Z,2.12
2018-12-11T18:22:35.324Z,2.05
2018-12-11T18:25:05.480Z,2.10
2018-12-11T18:27:35.328Z,1.90
2018-12-11T18:30:06.097Z,2.50
2018-12-11T18:32:35.163Z,2.15
2018-12-11T18:35:06.612Z,2.00
2018-12-11T18:37:35.817Z,2.60
2018-12-11T18:40:07.133Z,2.12
2018-12-11T18:42:36.634Z,2.17
2018-12-11T18:45:06.629Z,2.40
2018-12-11T18:47:35.698Z,2.83
2018-12-11T18:50:06.859Z,1.92
2018-12-11T18:52:36.403Z,2.08
2018-12-11T18:55:07.067Z,2.77
2018-12-11T18:57:37.445Z,2.27
2018-12-11T19:00:08.604Z,2.75
2018-12-11T19:02:38.657Z,2.90
2018-12-11T19:05:07.855Z,2.40
2018-12-11T19:07:36.906Z,2.62
2018-12-11T19:10:06.672Z,2.50
2018-12-11T19:12:36.269Z,2.12
2018-12-11T19:15:06.122Z,2.02
2018-12-11T19:17:35.292Z,1.75
2018-12-11T19:20:05.172Z,2.12
2018-12-11T19:22:34.557Z,2.62
2018-12-11T19:25:06.551Z,2.80
2018-12-11T19:27:36.464Z,2.62
2018-12-11T19:30:06.565Z,2.52
2018-12-11T19:32:35.942Z,2.30
2018-12-11T19:35:05.685Z,2.77
2018-12-11T19:37:35.773Z,3.10
2018-12-11T19:40:07.411Z,3.33
2018-12-11T19:42:37.941Z,3.62
2018-12-11T19:45:07.886Z,3.75
2018-12-11T19:47:37.003Z,3.47
2018-12-11T19:50:07.675Z,4.85
2018-12-11T19:52:39.945Z,5.42
2018-12-11T19:55:08.972Z,3.92
2018-12-11T19:57:38.413Z,4.28
2018-12-11T20:00:08.308Z,4.15
2018-12-11T20:02:37.525Z,3.47
2018-12-11T20:05:06.848Z,3.83
2018-12-11T20:07:37.840Z,3.10
2018-12-11T20:10:13.400Z,3.92
2018-12-11T20:12:42.466Z,3.02
2018-12-11T20:15:11.954Z,4.12
2018-12-11T20:17:41.078Z,3.00
2018-12-11T20:20:21.554Z,3.30
2018-12-11T20:22:50.900Z,3.20
2018-12-11T20:25:20.175Z,3.35
2018-12-11T20:27:49.773Z,2.98
2018-12-11T20:30:19.009Z,3.75
2018-12-11T20:32:48.164Z,3.40
2018-12-11T20:35:17.899Z,3.30
2018-12-11T20:37:47.339Z,3.15
2018-12-11T20:40:17.558Z,3.30
2018-12-11T20:42:46.880Z,3.33
2018-12-11T20:45:15.935Z,3.20
2018-12-11T20:47:45.776Z,3.00
2018-12-11T20:50:15.526Z,2.83
2018-12-11T20:52:46.345Z,2.15
2018-12-11T20:55:15.691Z,3.10
2018-12-11T20:57:45.468Z,2.67
2018-12-11T21:00:14.700Z,3.08
2018-12-11T21:02:43.803Z,2.92
2018-12-11T21:05:13.010Z,2.80
2018-12-11T21:07:42.111Z,3.08
2018-12-11T21:10:12.061Z,3.00
2018-12-11T21:12:41.128Z,2.87
2018-12-11T21:15:10.338Z,2.75
2018-12-11T21:17:39.530Z,2.75
2018-12-11T21:20:08.766Z,3.15
2018-12-11T21:22:37.891Z,2.72
2018-12-11T21:25:07.161Z,2.70
2018-12-11T21:27:37.283Z,2.75
2018-12-11T21:30:09.224Z,2.52
2018-12-11T21:32:39.256Z,2.92
2018-12-11T21:35:09.811Z,2.70
2018-12-11T21:37:38.852Z,2.80
2018-12-11T21:40:08.225Z,2.62
2018-12-11T21:42:38.155Z,2.75
2018-12-11T21:45:07.537Z,2.70
2018-12-11T21:47:36.701Z,2.70
2018-12-11T21:50:07.744Z,2.90
2018-12-11T21:52:37.903Z,2.50
2018-12-11T21:55:08.383Z,2.67
2018-12-11T21:57:37.864Z,3.00
2018-12-11T22:00:09.885Z,2.98
2018-12-11T22:02:39.163Z,3.62
2018-12-11T22:05:08.462Z,2.75
2018-12-11T22:07:37.580Z,2.85
2018-12-11T22:10:06.978Z,2.98
2018-12-11T22:12:36.125Z,2.60
2018-12-11T22:15:05.848Z,2.77
2018-12-11T22:17:35.020Z,2.50
2018-12-11T22:20:05.676Z,2.92
2018-12-11T22:22:35.107Z,4.05
2018-12-11T22:25:05.195Z,4.17
2018-12-11T22:27:35.177Z,4.08
2018-12-11T22:30:04.681Z,3.72
2018-12-11T22:32:33.773Z,4.22
2018-12-11T22:35:03.181Z,3.75
2018-12-11T22:37:32.317Z,3.50
2018-12-11T22:40:01.951Z,4.00
2018-12-11T22:42:31.687Z,3.62
2018-12-11T22:45:00.764Z,3.45
2018-12-11T22:47:31.137Z,3.40
2018-12-11T22:50:00.987Z,3.25
2018-12-11T22:52:30.811Z,3.02
2018-12-11T22:55:00.527Z,3.12
2018-12-11T22:57:30.214Z,2.58
2018-12-11T22:59:59.572Z,2.55
2018-12-11T23:02:28.723Z,2.87
2018-12-11T23:04:57.828Z,2.52
2018-12-11T23:07:26.897Z,3.58
2018-12-11T23:09:56.259Z,3.10
2018-12-11T23:12:25.360Z,3.20
2018-12-11T23:14:54.929Z,2.75
2018-12-11T23:17:24.819Z,2.85
2018-12-11T23:19:53.992Z,2.65
2018-12-11T23:22:23.028Z,2.62
2018-12-11T23:24:53.192Z,2.42
2018-12-11T23:27:22.742Z,2.02
2018-12-11T23:29:52.574Z,2.00
2018-12-11T23:32:21.677Z,2.12
2018-12-11T23:34:52.366Z,2.58
2018-12-11T23:37:21.820Z,2.35
2018-12-11T23:39:50.907Z,2.30
2018-12-11T23:42:20.008Z,2.00
2018-12-11T23:44:49.060Z,2.40
2018-12-11T23:47:19.087Z,2.27
2018-12-11T23:49:49.647Z,2.60
2018-12-11T23:52:20.139Z,2.33
2018-12-11T23:54:49.852Z,2.70
2018-12-11T23:57:19.656Z,2.40
2018-12-11T23:59:48.730Z,2.60
